createdAt,value
2019-05-05T00:00:54.961Z,5.07
2019-05-05T00:03:34.392Z,5.50
2019-05-05T00:06:05.264Z,6.00
2019-05-05T00:08:35.159Z,5.57
2019-05-05T00:11:28.566Z,5.97
2019-05-05T00:14:08.465Z,5.70
2019-05-05T00:17:05.391Z,5.63
2019-05-05T00:19:35.859Z,5.77
2019-05-05T00:22:04.542Z,5.60
2019-05-05T00:24:32.596Z,6.80
2019-05-05T00:27:00.939Z,6.53
2019-05-05T00:29:28.947Z,5.73
2019-05-05T00:31:57.498Z,6.07
2019-05-05T00:34:25.823Z,6.27
2019-05-05T00:36:55.234Z,5.73
2019-05-05T00:39:25.429Z,5.67
2019-05-05T00:41:55.470Z,5.70
2019-05-05T00:44:24.709Z,5.63
2019-05-05T00:47:30.639Z,5.77
2019-05-05T00:49:58.929Z,5.47
2019-05-05T00:52:26.804Z,5.70
2019-05-05T00:54:55.617Z,5.23
2019-05-05T00:57:24.351Z,5.83
2019-05-05T00:59:54.234Z,6.30
2019-05-05T01:02:39.989Z,6.17
2019-05-05T01:05:25.288Z,5.97
2019-05-05T01:07:54.753Z,6.27
2019-05-05T01:10:24.810Z,6.70
2019-05-05T01:12:54.432Z,6.37
2019-05-05T01:15:25.274Z,5.17
2019-05-05T01:17:55.147Z,5.63
2019-05-05T01:20:26.156Z,5.70
2019-05-05T01:22:55.335Z,5.57
2019-05-05T01:25:25.391Z,5.57
2019-05-05T01:27:54.588Z,6.00
2019-05-05T01:30:28.778Z,5.73
2019-05-05T01:33:02.937Z,5.07
2019-05-05T01:35:31.468Z,4.77
2019-05-05T01:38:08.538Z,5.03
2019-05-05T01:40:44.691Z,5.00
2019-05-05T01:43:14.629Z,5.50
2019-05-05T01:45:42.926Z,4.83
2019-05-05T01:48:10.908Z,5.20
2019-05-05T01:50:38.846Z,6.00
2019-05-05T01:53:07.192Z,4.50
2019-05-05T01:55:36.564Z,4.50
2019-05-05T01:58:05.255Z,4.43
2019-05-05T02:00:34.929Z,4.80
2019-05-05T02:03:04.522Z,5.03
2019-05-05T02:05:34.806Z,5.17
2019-05-05T02:08:04.918Z,5.13
2019-05-05T02:10:35.035Z,5.07
2019-05-05T02:13:04.623Z,5.30
2019-05-05T02:15:34.628Z,4.93
2019-05-05T02:18:04.577Z,4.70
2019-05-05T02:20:46.303Z,4.33
2019-05-05T02:23:16.538Z,4.57
2019-05-05T02:25:45.194Z,4.60
2019-05-05T02:28:14.958Z,4.37
2019-05-05T02:31:05.376Z,4.40
2019-05-05T02:33:35.340Z,4.27
2019-05-05T02:36:05.558Z,4.80
2019-05-05T02:38:35.556Z,4.33
2019-05-05T02:41:05.122Z,4.40
2019-05-05T02:43:35.366Z,4.30
2019-05-05T02:46:25.528Z,3.47
2019-05-05T02:48:56.313Z,3.60
2019-05-05T02:51:27.200Z,3.70
2019-05-05T02:53:57.786Z,3.27
2019-05-05T02:56:34.091Z,3.60
2019-05-05T02:59:06.562Z,4.10
2019-05-05T03:02:08.853Z,3.27
2019-05-05T03:04:37.140Z,3.53
2019-05-05T03:07:06.475Z,3.53
2019-05-05T03:09:35.589Z,3.80
2019-05-05T03:12:05.035Z,4.00
2019-05-05T03:14:35.782Z,4.07
2019-05-05T03:17:09.314Z,4.00
2019-05-05T03:19:38.177Z,3.70
2019-05-05T03:22:06.839Z,4.10
2019-05-05T03:24:34.962Z,3.57
2019-05-05T03:27:03.812Z,3.83
2019-05-05T03:29:33.565Z,3.90
2019-05-05T03:32:05.234Z,3.60
2019-05-05T03:34:34.228Z,3.63
2019-05-05T03:37:04.053Z,4.30
2019-05-05T03:39:34.024Z,3.40
2019-05-05T03:42:27.603Z,4.13
2019-05-05T03:44:58.648Z,4.10
2019-05-05T03:47:27.744Z,3.47
2019-05-05T03:49:55.880Z,6.43
2019-05-05T03:52:24.461Z,4.57
2019-05-05T03:54:54.207Z,3.73
2019-05-05T03:57:24.480Z,3.50
2019-05-05T03:59:54.603Z,3.63
2019-05-05T04:02:38.403Z,3.30
2019-05-05T04:05:21.059Z,2.93
2019-05-05T04:07:49.299Z,2.97
2019-05-05T04:10:17.312Z,3.00
2019-05-05T04:12:45.593Z,3.27
2019-05-05T04:15:14.262Z,3.10
2019-05-05T04:17:53.604Z,3.20
2019-05-05T04:20:26.176Z,2.80
2019-05-05T04:22:54.627Z,2.83
2019-05-05T04:25:24.360Z,2.70
2019-05-05T04:27:53.859Z,2.60
2019-05-05T04:30:23.704Z,3.00
2019-05-05T04:32:51.670Z,2.80
2019-05-05T04:35:19.677Z,2.83
2019-05-05T04:37:47.742Z,2.83
2019-05-05T04:40:15.947Z,2.83
2019-05-05T04:42:44.266Z,2.70
2019-05-05T04:45:14.576Z,2.63
2019-05-05T04:47:45.123Z,2.60
2019-05-05T04:50:30.117Z,2.40
2019-05-05T04:52:59.763Z,2.50
2019-05-05T04:55:27.908Z,2.50
2019-05-05T04:57:56.014Z,2.83
2019-05-05T05:00:24.259Z,2.70
2019-05-05T05:03:04.637Z,3.03
2019-05-05T05:05:53.612Z,2.60
2019-05-05T05:08:21.752Z,2.80
2019-05-05T05:10:49.822Z,2.70
2019-05-05T05:13:17.712Z,2.47
2019-05-05T05:15:45.667Z,2.40
2019-05-05T05:18:15.935Z,2.50
2019-05-05T05:20:44.662Z,2.60
2019-05-05T05:23:14.188Z,2.60
2019-05-05T05:25:43.813Z,2.50
2019-05-05T05:28:14.167Z,2.60
2019-05-05T05:30:43.784Z,2.87
2019-05-05T05:33:11.535Z,2.57
2019-05-05T05:35:39.477Z,2.57
2019-05-05T05:38:07.340Z,2.73
2019-05-05T05:40:44.503Z,2.77
2019-05-05T05:43:16.638Z,2.33
2019-05-05T05:46:00.292Z,2.67
2019-05-05T05:48:34.239Z,2.50
2019-05-05T05:51:07.954Z,2.60
2019-05-05T05:53:35.913Z,2.33
2019-05-05T05:56:04.457Z,3.17
2019-05-05T05:58:33.770Z,2.90
2019-05-05T06:01:04.145Z,2.67
2019-05-05T06:03:33.754Z,3.00
2019-05-05T06:06:01.444Z,2.80
2019-05-05T06:08:30.011Z,2.73
2019-05-05T06:10:58.068Z,2.90
2019-05-05T06:13:25.914Z,3.10
2019-05-05T06:15:53.925Z,2.90
2019-05-05T06:18:24.132Z,2.50
2019-05-05T06:20:53.598Z,2.30
2019-05-05T06:23:40.751Z,2.60
2019-05-05T06:26:09.039Z,2.60
2019-05-05T06:28:36.870Z,2.50
2019-05-05T06:31:05.150Z,2.43
2019-05-05T06:33:34.755Z,2.50
2019-05-05T06:36:03.762Z,2.50
2019-05-05T06:38:32.019Z,2.60
2019-05-05T06:41:25.858Z,2.30
2019-05-05T06:44:19.202Z,2.50
2019-05-05T06:47:23.643Z,2.17
2019-05-05T06:49:49.616Z,2.20
2019-05-05T06:52:17.729Z,2.83
2019-05-05T06:54:45.734Z,2.83
2019-05-05T06:57:13.927Z,3.40
2019-05-05T06:59:43.931Z,2.50
2019-05-05T07:02:14.392Z,2.50
2019-05-05T07:04:44.313Z,2.77
2019-05-05T07:07:14.356Z,2.93
2019-05-05T07:09:44.103Z,2.53
2019-05-05T07:12:13.797Z,2.40
2019-05-05T07:14:58.079Z,2.00
2019-05-05T07:17:26.067Z,2.13
2019-05-05T07:19:54.460Z,1.90
2019-05-05T07:22:24.064Z,1.80
2019-05-05T07:24:54.212Z,1.97
2019-05-05T07:27:24.171Z,1.87
2019-05-05T07:30:04.726Z,1.67
2019-05-05T07:32:59.526Z,1.80
2019-05-05T07:35:37.488Z,2.00
2019-05-05T07:38:05.519Z,1.90
2019-05-05T07:41:09.951Z,1.63
2019-05-05T07:44:25.908Z,8.83
2019-05-05T07:46:56.948Z,4.20
2019-05-05T07:49:33.630Z,3.67
2019-05-05T07:52:04.665Z,5.80
2019-05-05T07:54:34.241Z,1.53
2019-05-05T07:57:04.205Z,1.50
2019-05-05T07:59:34.020Z,1.27
2019-05-05T08:02:03.887Z,1.60
2019-05-05T08:04:31.824Z,1.63
2019-05-05T08:06:59.832Z,1.80
2019-05-05T08:09:27.863Z,1.53
2019-05-05T08:11:55.955Z,1.70
2019-05-05T08:14:37.654Z,2.10
2019-05-05T08:17:34.217Z,1.83
2019-05-05T08:20:06.862Z,1.67
2019-05-05T08:22:34.768Z,2.40
2019-05-05T08:25:34.452Z,2.00
2019-05-05T08:28:10.888Z,2.00
2019-05-05T08:31:10.093Z,1.60
2019-05-05T08:33:38.208Z,1.70
2019-05-05T08:36:06.248Z,1.57
2019-05-05T08:38:34.735Z,1.80
2019-05-05T08:41:04.570Z,1.50
2019-05-05T08:43:34.587Z,1.80
2019-05-05T08:46:04.671Z,1.90
2019-05-05T08:48:34.134Z,1.30
2019-05-05T08:51:02.195Z,1.40
2019-05-05T08:53:41.513Z,1.70
2019-05-05T08:55:59.994Z,1.40
2019-05-05T08:58:27.844Z,1.40
2019-05-05T09:00:55.746Z,2.10
2019-05-05T09:03:24.359Z,2.27
2019-05-05T09:05:54.191Z,1.90
2019-05-05T09:08:24.097Z,2.00
2019-05-05T09:11:07.442Z,1.87
2019-05-05T09:13:35.481Z,1.97
2019-05-05T09:16:03.909Z,2.57
2019-05-05T09:18:33.794Z,2.43
2019-05-05T09:21:04.366Z,2.50
2019-05-05T09:23:35.694Z,2.10
2019-05-05T09:26:26.016Z,2.30
2019-05-05T09:29:15.836Z,2.73
2019-05-05T09:31:45.089Z,2.83
2019-05-05T09:34:14.657Z,2.60
2019-05-05T09:36:43.965Z,2.40
2019-05-05T09:39:13.816Z,2.53
2019-05-05T09:41:47.492Z,2.50
2019-05-05T09:44:15.463Z,2.07
2019-05-05T09:46:44.677Z,2.20
2019-05-05T09:49:14.174Z,2.00
2019-05-05T09:51:44.006Z,2.20
2019-05-05T09:54:16.650Z,4.43
2019-05-05T09:56:41.894Z,3.40
2019-05-05T09:59:09.865Z,4.03
2019-05-05T10:01:37.934Z,4.20
2019-05-05T10:04:09.495Z,5.53
2019-05-05T10:06:38.038Z,6.73
2019-05-05T10:09:07.805Z,6.03
2019-05-05T10:11:54.044Z,5.97
2019-05-05T10:14:56.659Z,5.17
2019-05-05T10:17:24.768Z,6.30
2019-05-05T10:19:54.675Z,6.07
2019-05-05T10:22:23.926Z,3.00
2019-05-05T10:24:57.597Z,3.60
2019-05-05T10:27:25.732Z,4.20
2019-05-05T10:29:54.741Z,4.97
2019-05-05T10:32:24.492Z,6.27
2019-05-05T10:35:04.181Z,6.60
2019-05-05T10:37:31.278Z,3.53
2019-05-05T10:39:59.204Z,1.90
2019-05-05T10:42:46.588Z,2.20
2019-05-05T10:45:14.859Z,1.47
2019-05-05T10:47:44.091Z,1.00
2019-05-05T10:50:13.909Z,0.70
2019-05-05T10:52:44.166Z,4.50
2019-05-05T10:55:14.393Z,2.07
2019-05-05T10:57:43.570Z,1.50
2019-05-05T11:00:15.608Z,2.53
2019-05-05T11:02:43.296Z,1.80
2019-05-05T11:05:13.511Z,1.80
2019-05-05T11:07:41.724Z,1.77
2019-05-05T11:10:11.335Z,2.20
2019-05-05T11:12:39.527Z,3.00
2019-05-05T11:15:47.380Z,8.17
2019-05-05T11:18:15.624Z,4.93
2019-05-05T11:20:44.640Z,2.83
2019-05-05T11:23:14.831Z,1.90
2019-05-05T11:25:44.249Z,2.50
2019-05-05T11:28:12.577Z,1.57
2019-05-05T11:30:42.064Z,1.07
2019-05-05T11:33:29.395Z,0.70
2019-05-05T11:36:17.103Z,0.80
2019-05-05T11:38:45.434Z,2.63
2019-05-05T11:41:14.498Z,3.33
2019-05-05T11:43:43.338Z,5.37
2019-05-05T11:46:11.367Z,0.60
2019-05-05T11:48:39.561Z,4.80
2019-05-05T11:51:07.475Z,3.20
2019-05-05T11:53:35.455Z,2.07
2019-05-05T11:56:04.321Z,1.23
2019-05-05T11:58:34.044Z,2.07
2019-05-05T12:01:03.734Z,1.20
2019-05-05T12:03:33.789Z,1.30
2019-05-05T12:06:03.776Z,0.70
2019-05-05T12:08:31.528Z,0.50
2019-05-05T12:11:00.624Z,0.50
2019-05-05T12:13:28.605Z,0.90
2019-05-05T12:16:06.034Z,0.80
2019-05-05T12:18:34.569Z,0.87
2019-05-05T12:21:04.852Z,0.80
2019-05-05T12:23:34.041Z,0.70
2019-05-05T12:26:24.670Z,0.53
2019-05-05T12:28:56.118Z,0.40
2019-05-05T12:31:25.984Z,0.80
2019-05-05T12:33:54.880Z,0.60
2019-05-05T12:36:23.725Z,1.60
2019-05-05T12:38:51.909Z,5.90
2019-05-05T12:41:21.078Z,2.53
2019-05-05T12:43:49.296Z,1.30
2019-05-05T12:46:44.209Z,1.50
2019-05-05T12:49:13.877Z,1.00
2019-05-05T12:51:43.574Z,1.50
2019-05-05T12:54:11.808Z,4.53
2019-05-05T12:56:39.864Z,2.90
2019-05-05T12:59:14.265Z,2.27
2019-05-05T13:01:44.128Z,4.10
2019-05-05T13:04:14.029Z,2.57
2019-05-05T13:07:04.901Z,8.93
2019-05-05T13:09:33.505Z,11.20
2019-05-05T13:12:01.561Z,7.20
2019-05-05T13:15:04.225Z,4.10
2019-05-05T13:17:31.213Z,3.37
2019-05-05T13:20:07.772Z,2.80
2019-05-05T13:23:07.536Z,3.87
2019-05-05T13:26:19.442Z,2.90
2019-05-05T13:29:25.277Z,4.30
2019-05-05T13:31:51.377Z,3.00
2019-05-05T13:34:51.071Z,4.30
2019-05-05T13:37:18.598Z,3.30
2019-05-05T13:40:51.527Z,0.90
2019-05-05T13:43:53.877Z,1.47
2019-05-05T13:46:24.709Z,2.70
2019-05-05T13:48:53.944Z,2.10
2019-05-05T13:51:24.044Z,2.00
2019-05-05T13:53:59.129Z,1.87
2019-05-05T13:56:27.256Z,1.30
2019-05-05T13:58:55.199Z,1.40
2019-05-05T14:01:23.779Z,3.50
2019-05-05T14:03:53.933Z,3.70
2019-05-05T14:06:21.431Z,3.23
2019-05-05T14:08:49.441Z,4.30
2019-05-05T14:11:21.196Z,3.40
2019-05-05T14:13:49.108Z,3.50
2019-05-05T14:16:29.775Z,8.40
2019-05-05T14:18:57.715Z,4.73
2019-05-05T14:21:25.740Z,3.57
2019-05-05T14:24:03.795Z,4.13
2019-05-05T14:26:32.420Z,4.40
2019-05-05T14:29:01.705Z,3.43
2019-05-05T14:31:33.791Z,1.40
2019-05-05T14:34:04.447Z,1.77
2019-05-05T14:36:44.018Z,1.70
2019-05-05T14:39:14.641Z,1.90
2019-05-05T14:41:44.475Z,1.90
2019-05-05T14:44:13.467Z,1.90
2019-05-05T14:46:41.469Z,1.80
2019-05-05T14:49:09.413Z,2.80
2019-05-05T14:51:37.452Z,2.03
2019-05-05T14:54:05.402Z,1.70
2019-05-05T14:56:36.357Z,2.70
2019-05-05T14:59:03.760Z,1.43
2019-05-05T15:01:34.256Z,1.40
2019-05-05T15:04:04.074Z,3.33
2019-05-05T15:06:43.987Z,1.80
2019-05-05T15:10:01.598Z,2.00
2019-05-05T15:12:34.249Z,2.03
2019-05-05T15:15:35.030Z,4.03
2019-05-05T15:18:03.959Z,1.50
2019-05-05T15:20:33.791Z,1.90
2019-05-05T15:23:01.689Z,1.57
2019-05-05T15:25:29.644Z,5.90
2019-05-05T15:27:57.550Z,8.03
2019-05-05T15:30:27.200Z,3.23
2019-05-05T15:32:55.403Z,3.30
2019-05-05T15:35:23.512Z,6.17
2019-05-05T15:37:51.426Z,4.87
2019-05-05T15:40:19.446Z,3.83
2019-05-05T15:42:47.711Z,4.00
2019-05-05T15:45:16.225Z,2.90
2019-05-05T15:47:44.343Z,3.83
2019-05-05T15:50:13.780Z,4.20
2019-05-05T15:52:43.917Z,4.73
2019-05-05T15:55:13.902Z,3.23
2019-05-05T15:57:44.064Z,4.10
2019-05-05T16:00:13.941Z,4.33
2019-05-05T16:02:43.983Z,2.43
2019-05-05T16:05:13.595Z,2.17
2019-05-05T16:07:43.807Z,2.60
2019-05-05T16:10:13.639Z,3.20
2019-05-05T16:12:41.851Z,3.27
2019-05-05T16:16:00.505Z,2.90
2019-05-05T16:18:41.190Z,2.10
2019-05-05T16:21:26.340Z,1.20
2019-05-05T16:23:59.975Z,2.27
2019-05-05T16:26:27.951Z,2.10
2019-05-05T16:28:55.994Z,1.80
2019-05-05T16:31:23.960Z,2.30
2019-05-05T16:33:52.020Z,2.20
2019-05-05T16:36:19.974Z,1.70
2019-05-05T16:38:47.850Z,1.90
2019-05-05T16:41:16.168Z,2.30
2019-05-05T16:43:44.356Z,4.57
2019-05-05T16:46:14.507Z,3.90
2019-05-05T16:48:43.937Z,2.53
2019-05-05T16:51:14.204Z,2.90
2019-05-05T16:53:42.219Z,4.03
2019-05-05T16:56:13.961Z,4.20
2019-05-05T16:58:42.153Z,1.93
2019-05-05T17:01:14.410Z,2.30
2019-05-05T17:03:45.685Z,2.90
2019-05-05T17:06:14.009Z,4.63
2019-05-05T17:08:44.207Z,7.63
2019-05-05T17:11:24.364Z,7.63
2019-05-05T17:14:15.202Z,7.27
2019-05-05T17:17:19.385Z,3.90
2019-05-05T17:19:57.324Z,2.73
2019-05-05T17:22:33.899Z,2.47
2019-05-05T17:25:03.825Z,3.50
2019-05-05T17:27:45.415Z,3.33
2019-05-05T17:30:01.883Z,3.00
2019-05-05T17:32:29.869Z,4.40
2019-05-05T17:34:57.741Z,2.70
2019-05-05T17:37:25.670Z,2.80
2019-05-05T17:40:16.014Z,5.07
2019-05-05T17:43:06.958Z,6.13
2019-05-05T17:45:54.959Z,5.20
2019-05-05T17:48:33.280Z,3.63
2019-05-05T17:51:13.882Z,3.60
2019-05-05T17:53:59.976Z,3.00
2019-05-05T17:56:28.159Z,4.50
2019-05-05T17:58:56.125Z,4.33
2019-05-05T18:01:24.401Z,2.83
2019-05-05T18:03:54.354Z,2.50
2019-05-05T18:06:56.561Z,3.73
2019-05-05T18:09:56.081Z,2.00
2019-05-05T18:12:37.402Z,2.57
2019-05-05T18:15:51.334Z,2.73
2019-05-05T18:18:18.521Z,3.30
2019-05-05T18:20:46.844Z,2.57
2019-05-05T18:23:15.033Z,1.63
2019-05-05T18:25:44.192Z,2.30
2019-05-05T18:28:19.453Z,1.60
2019-05-05T18:30:44.390Z,1.00
2019-05-05T18:33:13.740Z,0.70
2019-05-05T18:35:44.362Z,0.80
2019-05-05T18:38:13.742Z,0.70
2019-05-05T18:40:43.411Z,0.50
2019-05-05T18:43:17.193Z,0.50
2019-05-05T18:45:45.713Z,0.80
2019-05-05T18:48:14.020Z,0.77
2019-05-05T18:50:42.125Z,0.80
2019-05-05T18:53:10.143Z,1.03
2019-05-05T18:55:38.276Z,0.53
2019-05-05T18:58:07.622Z,2.23
2019-05-05T19:00:54.843Z,39.30
2019-05-05T19:03:27.022Z,43.97
2019-05-05T19:05:59.810Z,4.90
2019-05-05T19:08:51.902Z,3.80
2019-05-05T19:11:24.468Z,2.77
2019-05-05T19:13:54.099Z,2.97
2019-05-05T19:16:48.632Z,2.07
2019-05-05T19:19:16.956Z,1.80
2019-05-05T19:21:49.532Z,0.87
2019-05-05T19:24:17.616Z,1.10
2019-05-05T19:26:45.829Z,1.20
2019-05-05T19:29:13.749Z,0.97
2019-05-05T19:31:43.818Z,0.70
2019-05-05T19:34:11.819Z,0.90
2019-05-05T19:36:39.860Z,2.10
2019-05-05T19:39:09.131Z,1.63
2019-05-05T19:41:37.350Z,1.27
2019-05-05T19:44:05.404Z,0.97
2019-05-05T19:46:44.201Z,0.80
2019-05-05T19:49:16.177Z,1.10
2019-05-05T19:51:44.741Z,1.73
2019-05-05T19:54:14.364Z,2.03
2019-05-05T19:56:44.759Z,0.90
2019-05-05T19:59:13.696Z,1.13
2019-05-05T20:01:44.644Z,0.60
2019-05-05T20:04:14.473Z,1.80
2019-05-05T20:06:43.983Z,1.13
2019-05-05T20:09:14.203Z,0.83
2019-05-05T20:11:43.798Z,1.40
2019-05-05T20:14:19.398Z,1.70
2019-05-05T20:17:14.984Z,1.60
2019-05-05T20:19:46.801Z,2.10
2019-05-05T20:22:15.595Z,3.40
2019-05-05T20:24:44.507Z,1.47
2019-05-05T20:27:46.221Z,2.07
2019-05-05T20:30:14.703Z,0.70
2019-05-05T20:32:49.035Z,1.27
2019-05-05T20:35:39.730Z,0.70
2019-05-05T20:38:10.275Z,0.60
2019-05-05T20:40:39.828Z,1.60
2019-05-05T20:43:08.051Z,1.80
2019-05-05T20:45:37.765Z,3.63
2019-05-05T20:48:05.707Z,3.40
2019-05-05T20:50:35.372Z,1.50
2019-05-05T20:53:04.858Z,1.20
2019-05-05T20:55:33.918Z,0.43
2019-05-05T20:58:04.385Z,0.30
2019-05-05T21:00:31.914Z,0.30
2019-05-05T21:02:59.929Z,0.60
2019-05-05T21:05:36.792Z,0.40
2019-05-05T21:08:05.042Z,0.50
2019-05-05T21:10:34.717Z,0.40
2019-05-05T21:13:03.745Z,0.33
2019-05-05T21:16:14.061Z,0.60
2019-05-05T21:18:38.537Z,0.50
2019-05-05T21:21:09.112Z,0.50
2019-05-05T21:23:47.758Z,0.30
2019-05-05T21:26:23.366Z,0.30
2019-05-05T21:28:51.002Z,0.30
2019-05-05T21:31:18.944Z,0.50
2019-05-05T21:33:46.992Z,0.30
2019-05-05T21:36:15.025Z,0.40
2019-05-05T21:38:43.890Z,0.50
2019-05-05T21:41:13.795Z,0.30
2019-05-05T21:43:41.732Z,0.40
2019-05-05T21:46:09.712Z,0.30
2019-05-05T21:48:37.674Z,0.30
2019-05-05T21:51:30.919Z,0.43
2019-05-05T21:54:18.330Z,0.30
2019-05-05T21:56:56.337Z,0.30
2019-05-05T21:59:24.291Z,0.30
2019-05-05T22:01:52.215Z,0.33
2019-05-05T22:04:20.251Z,0.30
2019-05-05T22:06:48.195Z,1.93
2019-05-05T22:09:16.289Z,1.50
2019-05-05T22:11:44.359Z,0.90
2019-05-05T22:14:14.002Z,0.40
2019-05-05T22:16:41.992Z,0.50
2019-05-05T22:19:09.981Z,0.30
2019-05-05T22:21:45.037Z,0.30
2019-05-05T22:24:19.503Z,0.40
2019-05-05T22:26:47.612Z,0.50
2019-05-05T22:29:17.134Z,0.50
2019-05-05T22:31:45.461Z,0.40
2019-05-05T22:34:14.558Z,0.30
2019-05-05T22:36:44.849Z,0.30
2019-05-05T22:39:16.567Z,0.40
2019-05-05T22:41:44.482Z,0.40
2019-05-05T22:44:13.921Z,0.33
2019-05-05T22:46:42.220Z,0.30
2019-05-05T22:49:11.096Z,0.30
2019-05-05T22:51:39.048Z,0.30
2019-05-05T22:54:07.304Z,0.30
2019-05-05T22:56:35.246Z,0.40
2019-05-05T22:59:04.305Z,0.30
2019-05-05T23:01:32.952Z,0.40
2019-05-05T23:04:08.988Z,0.40
2019-05-05T23:06:37.128Z,0.40
2019-05-05T23:09:09.264Z,0.40
2019-05-05T23:11:37.581Z,0.30
2019-05-05T23:14:24.766Z,0.30
2019-05-05T23:16:55.403Z,0.40
2019-05-05T23:19:26.365Z,0.30
2019-05-05T23:22:24.064Z,0.23
2019-05-05T23:24:56.950Z,0.30
2019-05-05T23:27:44.032Z,0.30
2019-05-05T23:30:15.770Z,0.30
2019-05-05T23:32:43.874Z,0.40
2019-05-05T23:35:14.295Z,0.40
2019-05-05T23:37:44.746Z,0.30
2019-05-05T23:40:14.387Z,0.20
2019-05-05T23:42:42.856Z,0.20
2019-05-05T23:45:13.805Z,0.30
2019-05-05T23:47:42.229Z,0.33
2019-05-05T23:50:10.583Z,0.50
2019-05-05T23:52:38.904Z,0.30
2019-05-05T23:55:07.410Z,0.40
2019-05-05T23:57:35.751Z,0.50
